Time;durP1;ratioP1;P1;durP2;ratioP2;P2;SDS_P1;SDS_P2;PMS_P1;PMS_P2;Temp;Humidity;BMP_temperature;BMP_pressure;BME280_temperature;BME280_humidity;BME280_pressure;Samples;Min_cycle;Max_cycle;Signal;HPM_P1;HPM_P2
2023/01/24 05:00:19;;;;;;;12.65;6.80;;;;;;;3.56;100.00;101855.53;1042615;28;20466;-88
2023/01/24 07:10:39;;;;;;;27.60;14.15;;;;;;;3.27;100.00;101931.84;4381135;31;20106;-91
2023/01/24 07:13:42;;;;;;;26.12;14.90;;;;;;;3.25;100.00;101934.63;5320798;33;34846;-88
2023/01/24 07:16:45;;;;;;;27.40;13.82;;;;;;;3.25;100.00;101942.63;5316769;33;34358;-89
2023/01/24 07:19:49;;;;;;;28.15;14.27;;;;;;;3.25;100.00;101947.94;5324580;33;34939;-88
2023/01/24 07:22:52;;;;;;;29.10;13.95;;;;;;;3.36;100.00;101941.94;5331115;33;33794;-88
2023/01/24 07:25:56;;;;;;;29.20;14.80;;;;;;;3.41;100.00;101950.53;5331353;33;33581;-89
2023/01/24 07:28:59;;;;;;;27.40;14.15;;;;;;;3.56;100.00;101954.06;5322830;33;33911;-88
2023/01/24 07:32:02;;;;;;;26.30;13.82;;;;;;;3.58;100.00;101963.66;5316447;33;33757;-88
2023/01/24 07:35:06;;;;;;;23.67;13.10;;;;;;;3.75;100.00;101954.66;5326052;33;33931;-88
2023/01/24 07:38:11;;;;;;;28.58;13.57;;;;;;;3.91;100.00;101946.53;5332208;33;34645;-88
2023/01/24 07:41:14;;;;;;;26.85;14.30;;;;;;;4.06;100.00;101953.56;5332865;33;34575;-88
2023/01/24 07:44:17;;;;;;;28.10;13.68;;;;;;;4.19;100.00;101961.66;5320757;33;33684;-88
2023/01/24 07:47:20;;;;;;;22.73;13.13;;;;;;;4.41;100.00;101952.28;5316749;33;33809;-88
2023/01/24 07:50:26;;;;;;;22.55;13.00;;;;;;;4.48;100.00;101958.94;5313797;33;33466;-88
2023/01/24 07:53:28;;;;;;;20.67;11.95;;;;;;;4.47;100.00;101955.37;5312435;33;34297;-88
2023/01/24 07:56:31;;;;;;;22.70;11.80;;;;;;;4.60;100.00;101965.28;5313498;33;34082;-88
2023/01/24 07:59:34;;;;;;;20.58;11.52;;;;;;;4.59;100.00;101967.06;5313587;33;33716;-88
2023/01/24 08:02:44;;;;;;;20.40;11.40;;;;;;;4.70;100.00;101972.56;5311964;33;34194;-88
2023/01/24 08:05:47;;;;;;;19.37;11.63;;;;;;;4.84;100.00;101970.81;5310107;33;33517;-88
2023/01/24 08:08:50;;;;;;;20.40;10.95;;;;;;;5.19;100.00;101973.78;5311748;33;34294;-88
2023/01/24 08:11:53;;;;;;;19.37;10.95;;;;;;;5.39;100.00;101980.47;5311388;33;33882;-88
2023/01/24 08:14:56;;;;;;;20.23;12.43;;;;;;;5.56;100.00;101985.50;5313082;33;33372;-88
2023/01/24 08:18:01;;;;;;;17.92;10.88;;;;;;;5.70;100.00;101987.19;5311590;33;33495;-88
2023/01/24 08:21:05;;;;;;;21.48;12.00;;;;;;;5.80;100.00;101990.09;5312844;33;33532;-88
2023/01/24 08:24:08;;;;;;;17.50;10.93;;;;;;;5.95;100.00;101986.37;5312038;33;33907;-88
2023/01/24 08:27:11;;;;;;;18.42;10.98;;;;;;;5.84;100.00;101991.59;5313245;33;33701;-88
2023/01/24 08:30:15;;;;;;;20.27;11.77;;;;;;;5.82;100.00;101993.50;5310121;33;33978;-87
2023/01/24 08:33:18;;;;;;;19.20;11.38;;;;;;;5.60;100.00;101992.34;5309556;33;33234;-88
2023/01/24 08:36:23;;;;;;;19.00;10.60;;;;;;;5.74;100.00;102001.22;5309246;33;33467;-90
2023/01/24 08:39:26;;;;;;;19.92;12.20;;;;;;;5.83;100.00;101996.09;5351522;28;32046;-88
2023/01/24 08:42:31;;;;;;;19.62;11.12;;;;;;;5.85;100.00;101990.63;5323783;33;33847;-90
2023/01/24 08:45:33;;;;;;;17.77;10.70;;;;;;;5.98;100.00;101996.00;5326035;33;33906;-87
2023/01/24 08:48:36;;;;;;;22.95;11.77;;;;;;;6.09;100.00;101990.75;5322465;33;33422;-86
2023/01/24 08:51:39;;;;;;;20.33;12.05;;;;;;;6.03;100.00;101997.38;5328258;33;34157;-86
2023/01/24 08:54:42;;;;;;;17.73;11.57;;;;;;;6.18;100.00;101999.94;5326132;33;33798;-87
2023/01/24 08:57:46;;;;;;;23.23;11.38;;;;;;;6.20;100.00;101996.19;5330831;33;34182;-90
2023/01/24 09:00:50;;;;;;;22.23;12.37;;;;;;;6.20;100.00;101998.88;5326519;33;33343;-87
2023/01/24 09:03:54;;;;;;;22.62;12.43;;;;;;;6.22;100.00;101990.72;5329141;33;33299;-87
2023/01/24 09:06:57;;;;;;;18.02;10.75;;;;;;;6.30;100.00;101997.22;5343479;33;33377;-89
2023/01/24 09:10:00;;;;;;;21.77;12.70;;;;;;;6.34;100.00;101996.03;5329546;33;33776;-90
2023/01/24 09:13:04;;;;;;;21.55;12.00;;;;;;;6.38;100.00;102002.03;5329479;33;34970;-91
2023/01/24 09:19:50;;;;;;;22.27;12.32;;;;;;;6.60;100.00;102009.34;4718538;31;20693;-88
2023/01/24 09:22:56;;;;;;;21.08;11.85;;;;;;;6.73;100.00;102007.50;5304141;33;33453;-88
2023/01/24 09:25:58;;;;;;;22.17;12.82;;;;;;;6.76;100.00;102004.59;5297483;33;34726;-88
2023/01/24 09:29:01;;;;;;;23.62;11.77;;;;;;;6.72;100.00;102011.12;5295214;33;34183;-89
2023/01/24 09:32:05;;;;;;;25.60;12.73;;;;;;;6.82;100.00;102001.47;5293222;33;34666;-90
2023/01/24 09:35:08;;;;;;;20.95;11.70;;;;;;;6.88;100.00;102004.66;5298198;33;33584;-89
2023/01/24 09:38:11;;;;;;;19.67;11.65;;;;;;;6.80;100.00;101998.03;5300954;33;33924;-88
2023/01/24 09:41:21;;;;;;;20.02;12.05;;;;;;;6.81;100.00;101993.53;5296126;33;34400;-89
2023/01/24 09:44:44;;;;;;;19.10;11.75;;;;;;;6.76;100.00;101990.38;5311929;33;33614;-88
2023/01/24 09:47:58;;;;;;;23.00;12.23;;;;;;;6.74;100.00;101992.28;5290461;33;33810;-88
2023/01/24 09:51:10;;;;;;;20.33;11.68;;;;;;;6.73;100.00;101994.12;5291924;33;33384;-89
2023/01/24 09:54:36;;;;;;;19.02;11.52;;;;;;;6.84;100.00;101985.28;5293148;33;34477;-89
2023/01/24 09:57:56;;;;;;;18.45;10.23;;;;;;;7.03;100.00;101987.44;5273555;33;34329;-88
2023/01/24 10:01:18;;;;;;;20.73;10.63;;;;;;;7.42;100.00;101988.91;5293283;33;33770;-89
2023/01/24 10:04:30;;;;;;;16.30;10.02;;;;;;;7.89;95.49;101979.00;5287318;33;34900;-88
2023/01/24 10:08:01;;;;;;;15.93;9.52;;;;;;;8.17;92.58;101977.66;5275257;33;33616;-89
2023/01/24 10:11:13;;;;;;;16.10;9.50;;;;;;;8.30;88.00;101968.63;5281585;33;34788;-89
2023/01/24 10:14:43;;;;;;;15.05;9.40;;;;;;;8.29;89.08;101970.47;5278284;33;33718;-89
2023/01/24 10:18:01;;;;;;;;;;;;;;;8.30;89.85;101965.94;5286883;33;34109;-89
2023/01/24 10:21:25;;;;;;;14.23;9.07;;;;;;;8.27;87.64;101963.50;5283309;33;34761;-89
2023/01/24 10:24:32;;;;;;;13.50;8.68;;;;;;;8.49;87.25;101955.47;5275364;33;33901;-89
2023/01/24 10:27:42;;;;;;;14.55;8.23;;;;;;;8.57;85.91;101952.13;5270746;33;33253;-89
2023/01/24 10:30:56;;;;;;;14.25;8.60;;;;;;;8.62;84.93;101955.28;5272604;33;34857;-91
2023/01/24 10:34:10;;;;;;;12.35;7.82;;;;;;;8.71;83.86;101946.47;5275593;33;33628;-89
2023/01/24 10:37:28;;;;;;;15.63;8.27;;;;;;;8.72;83.47;101944.66;5273754;33;33414;-89
2023/01/24 10:40:31;;;;;;;16.90;9.25;;;;;;;8.66;83.42;101947.84;5296691;28;33052;-89
2023/01/24 10:43:36;;;;;;;16.90;9.60;;;;;;;8.69;82.83;101945.78;5325450;33;33883;-89
2023/01/24 10:47:13;;;;;;;13.93;8.52;;;;;;;8.76;83.26;101944.28;5311421;33;34941;-89
2023/01/24 10:50:17;;;;;;;18.17;9.70;;;;;;;8.81;83.17;101934.00;5341496;27;31967;-89
2023/01/24 10:53:26;;;;;;;16.90;9.40;;;;;;;8.62;83.33;101934.66;5337151;33;34038;-89
2023/01/24 10:56:38;;;;;;;15.63;8.63;;;;;;;8.64;85.78;101931.87;5327132;33;33221;-89
2023/01/24 10:59:41;;;;;;;16.92;9.43;;;;;;;8.48;85.25;101931.41;5380819;27;33553;-89
2023/01/24 11:02:48;;;;;;;17.95;9.48;;;;;;;8.44;87.36;101927.28;5349954;33;34220;-89
2023/01/24 11:05:56;;;;;;;14.50;8.63;;;;;;;8.24;87.26;101923.50;5342821;33;33223;-89
2023/01/24 11:09:14;;;;;;;14.43;8.65;;;;;;;8.24;86.34;101918.16;5339598;33;33456;-89
2023/01/24 11:12:20;;;;;;;14.15;7.70;;;;;;;8.38;86.09;101916.06;5347663;33;33260;-89
2023/01/24 11:15:32;;;;;;;18.45;9.15;;;;;;;8.43;84.76;101912.19;5348866;33;33762;-89
2023/01/24 11:18:36;;;;;;;13.05;7.90;;;;;;;8.69;85.32;101912.66;5354933;33;34941;-91
2023/01/24 11:21:52;;;;;;;13.60;8.32;;;;;;;8.66;83.21;101905.75;5357891;33;36257;-92
2023/01/24 11:24:59;;;;;;;15.57;8.07;;;;;;;8.72;84.02;101897.19;5356466;33;33565;-89
2023/01/24 11:28:03;;;;;;;14.65;7.95;;;;;;;8.72;85.11;101889.12;5353609;33;33254;-89
2023/01/24 11:31:25;;;;;;;12.50;7.80;;;;;;;8.76;84.85;101887.03;5348537;33;33203;-89
2023/01/24 11:34:50;;;;;;;13.57;7.65;;;;;;;8.85;82.26;101883.56;5394109;27;34203;-89
2023/01/24 11:38:02;;;;;;;13.23;8.82;;;;;;;9.03;81.80;101879.31;5385967;28;33766;-89
2023/01/24 11:41:28;;;;;;;15.90;9.18;;;;;;;9.19;83.92;101868.13;5341233;33;33249;-89
2023/01/24 11:45:00;;;;;;;15.27;8.30;;;;;;;9.30;81.80;101872.53;5329336;33;33870;-89
2023/01/24 11:48:18;;;;;;;14.00;8.65;;;;;;;9.23;81.78;101876.75;5344771;33;33599;-89
2023/01/24 11:51:58;;;;;;;21.77;11.45;;;;;;;9.15;81.53;101868.50;5330869;33;34028;-89
2023/01/24 11:55:28;;;;;;;15.85;8.73;;;;;;;9.30;81.93;101870.72;5327637;33;33868;-89
2023/01/24 11:58:34;;;;;;;12.82;8.38;;;;;;;9.33;81.99;101866.94;5352844;33;34914;-89
2023/01/24 12:02:02;;;;;;;14.45;8.85;;;;;;;9.47;80.79;101866.56;5326778;33;33628;-89
2023/01/24 12:05:36;;;;;;;15.55;8.82;;;;;;;9.63;80.02;101858.00;5344967;28;33666;-90
2023/01/24 12:09:11;;;;;;;16.62;8.80;;;;;;;9.89;79.55;101865.62;5384971;28;34077;-89
2023/01/24 12:12:40;;;;;;;19.00;8.60;;;;;;;10.32;77.95;101864.44;5342739;28;33136;-89
2023/01/24 12:16:15;;;;;;;12.70;7.93;;;;;;;10.56;75.27;101867.59;5327534;28;33197;-90
2023/01/24 12:19:28;;;;;;;13.62;7.28;;;;;;;10.95;71.70;101858.66;5367921;28;32954;-89
2023/01/24 12:22:32;;;;;;;12.82;7.12;;;;;;;11.14;72.15;101861.28;5327104;33;34705;-89
2023/01/24 12:25:43;;;;;;;12.70;6.93;;;;;;;11.52;69.71;101854.97;5370214;28;34097;-89
2023/01/24 12:29:04;;;;;;;10.20;6.55;;;;;;;12.59;65.39;101848.09;5333866;33;33715;-89
2023/01/24 12:32:28;;;;;;;9.38;5.85;;;;;;;12.54;64.02;101853.94;5361848;28;34311;-91
2023/01/24 12:35:44;;;;;;;10.00;5.55;;;;;;;13.31;59.22;101855.12;5371144;28;33917;-89
2023/01/24 12:38:55;;;;;;;9.30;5.70;;;;;;;14.04;59.11;101849.19;5352212;33;34402;-89
2023/01/24 12:42:10;;;;;;;7.90;5.45;;;;;;;13.55;57.33;101854.41;5372391;28;33518;-89
2023/01/24 12:56:44;;;;;;;10.50;6.30;;;;;;;11.88;63.86;101847.03;5235584;34;32222;-89
2023/01/24 13:12:41;;;;;;;12.93;6.82;;;;;;;9.66;74.28;101844.28;907880;28;21184;31
2023/01/24 13:19:50;;;;;;;17.08;9.20;;;;;;;9.14;77.48;101851.53;5354677;28;32912;-91
2023/01/24 13:23:10;;;;;;;20.90;11.93;;;;;;;8.74;82.89;101836.13;5329618;28;34509;-90
2023/01/24 13:26:15;;;;;;;;;;;;;;;8.45;87.67;101845.78;5352568;28;33422;-89
2023/01/24 13:29:50;;;;;;;26.10;13.50;;;;;;;8.24;90.67;101843.87;5369598;28;33522;-89
2023/01/24 13:32:56;;;;;;;23.10;14.32;;;;;;;8.19;93.05;101851.47;5327094;28;33873;-89
2023/01/24 13:36:05;;;;;;;23.75;14.80;;;;;;;7.93;95.55;101846.41;5368867;28;33430;-90
2023/01/24 13:39:35;;;;;;;25.87;15.07;;;;;;;7.88;96.43;101845.91;5313850;33;33837;-91
2023/01/24 13:42:46;;;;;;;26.25;14.77;;;;;;;7.77;97.48;101845.06;5357085;28;33265;-90
2023/01/24 13:45:50;;;;;;;23.65;14.93;;;;;;;7.70;98.94;101839.34;5353322;28;33942;-90
2023/01/24 13:48:57;;;;;;;28.65;15.27;;;;;;;7.68;99.10;101846.66;5327122;33;33134;-90
2023/01/24 13:52:02;;;;;;;26.52;15.55;;;;;;;7.75;99.64;101852.38;5371260;28;34262;-90
2023/01/24 13:55:29;;;;;;;22.62;13.38;;;;;;;7.75;100.00;101847.88;5429657;28;33106;-90
2023/01/24 14:27:32;;;;;;;24.83;13.10;;;;;;;7.44;99.96;101861.03;2352616;31;20134;-91
2023/01/24 14:30:42;;;;;;;27.83;12.82;;;;;;;7.27;100.00;101856.16;5314699;33;34090;-90
2023/01/24 14:34:08;;;;;;;31.65;12.63;;;;;;;7.14;100.00;101858.94;5315739;33;33964;-91
2023/01/24 14:37:12;;;;;;;27.10;13.32;;;;;;;7.00;100.00;101853.78;5318454;33;33673;-91
2023/01/24 14:40:22;;;;;;;22.73;12.35;;;;;;;6.80;100.00;101858.00;5321052;33;34032;-91
2023/01/24 14:43:52;;;;;;;21.80;12.63;;;;;;;6.63;100.00;101861.94;5328581;33;34252;-91
2023/01/24 14:47:13;;;;;;;25.48;12.60;;;;;;;6.48;100.00;101865.78;5317165;33;33443;-91
2023/01/24 14:50:33;;;;;;;24.90;12.63;;;;;;;6.29;100.00;101863.63;5310250;33;33711;-91
2023/01/24 14:53:37;;;;;;;;;;;;;;;6.18;100.00;101868.91;5324937;33;34010;-91
2023/01/24 14:56:40;;;;;;;20.95;11.77;;;;;;;6.00;100.00;101866.63;5312691;33;33801;-90
2023/01/24 14:59:42;;;;;;;22.87;11.82;;;;;;;5.95;100.00;101865.25;5314116;33;34836;-89
2023/01/24 15:03:02;;;;;;;22.90;12.18;;;;;;;5.84;100.00;101863.31;5327468;33;34769;-90
2023/01/24 15:06:15;;;;;;;22.50;11.80;;;;;;;5.91;100.00;101859.25;5313102;33;33436;-90
2023/01/24 15:09:20;;;;;;;24.27;13.45;;;;;;;5.80;100.00;101868.03;5308339;33;33488;-90
2023/01/24 15:12:32;;;;;;;25.15;12.82;;;;;;;5.70;100.00;101872.28;5307950;33;33714;-90
2023/01/24 15:15:36;;;;;;;22.62;12.15;;;;;;;5.64;100.00;101878.09;5308395;33;33502;-90
2023/01/24 15:18:42;;;;;;;20.67;12.13;;;;;;;5.72;100.00;101874.88;5308828;33;34261;-90
2023/01/24 15:21:48;;;;;;;25.42;13.13;;;;;;;5.62;100.00;101878.22;5308713;33;34604;-90
2023/01/24 15:24:53;;;;;;;23.20;13.02;;;;;;;5.49;100.00;101880.03;5327659;28;34208;-90
2023/01/24 15:28:18;;;;;;;25.70;13.57;;;;;;;5.44;100.00;101890.16;5370400;28;34854;-90
2023/01/24 15:31:26;;;;;;;27.45;13.65;;;;;;;5.33;100.00;101890.94;5359971;28;33080;-90
2023/01/24 15:34:33;;;;;;;26.40;13.38;;;;;;;5.29;100.00;101894.75;5285049;33;33433;-90
2023/01/24 15:37:36;;;;;;;24.87;13.20;;;;;;;5.27;100.00;101887.84;5280158;33;33263;-90
2023/01/24 15:45:15;;;;;;;29.08;14.73;;;;;;;5.22;100.00;101894.34;5376089;28;33728;-90
2023/01/24 15:48:18;;;;;;;26.15;14.85;;;;;;;5.09;100.00;101898.81;5315467;33;34652;-88
2023/01/24 15:51:35;;;;;;;30.95;15.32;;;;;;;5.08;100.00;101891.75;5322335;28;34290;-89
2023/01/24 15:54:42;;;;;;;28.70;15.32;;;;;;;5.00;100.00;101896.75;5376421;28;32637;-89
2023/01/24 15:57:45;;;;;;;29.33;16.33;;;;;;;4.88;100.00;101903.78;5331415;33;33775;-89
2023/01/24 16:00:56;;;;;;;29.00;16.17;;;;;;;4.78;100.00;101900.87;5328881;33;34002;-89
2023/01/24 16:04:13;;;;;;;34.05;17.52;;;;;;;4.74;100.00;101898.53;5324967;33;34034;-89
2023/01/24 16:07:18;;;;;;;34.03;17.30;;;;;;;4.71;100.00;101907.59;5331183;33;33572;-89
2023/01/24 16:10:21;;;;;;;35.80;18.35;;;;;;;4.73;100.00;101912.81;5360934;28;33426;-89
2023/01/24 16:13:32;;;;;;;33.80;18.30;;;;;;;4.76;100.00;101917.94;5328256;33;34361;-89
2023/01/24 16:16:36;;;;;;;31.45;18.00;;;;;;;4.73;100.00;101916.34;5328167;33;33083;-89
2023/01/24 16:19:39;;;;;;;33.28;19.48;;;;;;;4.68;100.00;101929.16;5327661;33;34522;-89
2023/01/24 16:22:42;;;;;;;33.30;18.33;;;;;;;4.68;100.00;101921.16;5328522;33;33229;-89
2023/01/24 16:25:49;;;;;;;35.63;19.00;;;;;;;4.61;100.00;101922.50;5328201;33;33580;-89
2023/01/24 16:28:52;;;;;;;36.20;19.45;;;;;;;4.57;100.00;101915.66;5375355;28;33625;-90
2023/01/24 16:31:55;;;;;;;35.85;19.83;;;;;;;4.42;100.00;101922.84;5377188;28;34978;-89
2023/01/24 16:34:58;;;;;;;32.20;17.95;;;;;;;4.40;100.00;101916.75;5322972;28;33610;-89
2023/01/24 16:38:01;;;;;;;35.00;18.73;;;;;;;4.27;100.00;101913.16;5309319;33;34225;-89
2023/01/24 16:41:06;;;;;;;32.08;18.45;;;;;;;4.27;100.00;101911.37;5309474;33;33185;-89
2023/01/24 16:44:09;;;;;;;37.60;18.15;;;;;;;4.15;100.00;101914.81;5315314;33;34227;-89
2023/01/24 16:47:12;;;;;;;32.53;18.50;;;;;;;4.05;100.00;101919.88;5321222;33;33816;-89
2023/01/24 16:50:16;;;;;;;32.00;18.05;;;;;;;3.95;100.00;101925.88;5368314;28;34325;-90
2023/01/24 16:53:19;;;;;;;35.20;18.98;;;;;;;3.95;100.00;101932.09;5363429;28;34576;-90
